Edinburg, New York
Current Conditions -  °F | °C
As of 1:35 PM on Tuesday 27 Jan 2015 (Local Time) from KNY0 Reporting Station
Overcast Overcast  
Wind Chill:   Ceiling: 1400
Heat Index: 13°   Visibility: 0.75mi
Dew Point:   Wind: 10mph
Humidity: 75%   Direction: 260°W
Pressure: 29.75"   Gusts: NA
Location:  43.2819°N, 74.3419°W
Report Text: KNY0 271835Z AUTO 26009KT 3/4SM OVC014 M11/M14 A2975 RMK AO2 T11061143
Loading
Personal Weather Stations






























Interactive Weather Map New forecast layout! Learn more

10-Day Weather Forecast

Advertisements
Track Severe Weather on mobile